sensor_id;sensor_type;location;lat;lon;timestamp;temperature;humidity
35381;DHT22;21486;51.916;8.378;2023-02-02T00:00:47;5.00;96.80
35381;DHT22;21486;51.916;8.378;2023-02-02T00:03:13;5.00;96.70
35381;DHT22;21486;51.916;8.378;2023-02-02T00:05:44;5.00;96.80
35381;DHT22;21486;51.916;8.378;2023-02-02T00:08:10;4.90;96.90
35381;DHT22;21486;51.916;8.378;2023-02-02T00:10:35;4.80;97.10
35381;DHT22;21486;51.916;8.378;2023-02-02T00:13:01;4.80;97.10
35381;DHT22;21486;51.916;8.378;2023-02-02T00:15:26;4.80;97.30
35381;DHT22;21486;51.916;8.378;2023-02-02T00:17:52;4.70;97.40
35381;DHT22;21486;51.916;8.378;2023-02-02T00:20:18;4.70;97.40
35381;DHT22;21486;51.916;8.378;2023-02-02T00:22:43;4.70;97.50
35381;DHT22;21486;51.916;8.378;2023-02-02T00:25:09;4.80;97.10
35381;DHT22;21486;51.916;8.378;2023-02-02T00:27:34;4.70;97.40
35381;DHT22;21486;51.916;8.378;2023-02-02T00:30:00;4.70;97.40
35381;DHT22;21486;51.916;8.378;2023-02-02T00:32:25;4.70;97.60
35381;DHT22;21486;51.916;8.378;2023-02-02T00:34:51;4.60;97.50
35381;DHT22;21486;51.916;8.378;2023-02-02T00:37:16;4.50;97.80
35381;DHT22;21486;51.916;8.378;2023-02-02T00:39:42;4.50;97.80
35381;DHT22;21486;51.916;8.378;2023-02-02T00:42:10;4.50;98.00
35381;DHT22;21486;51.916;8.378;2023-02-02T00:44:36;4.60;97.70
35381;DHT22;21486;51.916;8.378;2023-02-02T00:47:20;4.60;97.40
35381;DHT22;21486;51.916;8.378;2023-02-02T00:49:46;4.50;97.50
35381;DHT22;21486;51.916;8.378;2023-02-02T00:52:12;4.40;97.80
35381;DHT22;21486;51.916;8.378;2023-02-02T00:54:38;4.40;98.00
35381;DHT22;21486;51.916;8.378;2023-02-02T00:57:03;4.40;98.00
35381;DHT22;21486;51.916;8.378;2023-02-02T00:59:29;4.40;98.00
35381;DHT22;21486;51.916;8.378;2023-02-02T01:01:55;4.40;98.00
35381;DHT22;21486;51.916;8.378;2023-02-02T01:04:20;4.40;97.90
35381;DHT22;21486;51.916;8.378;2023-02-02T01:06:46;4.40;97.80
35381;DHT22;21486;51.916;8.378;2023-02-02T01:09:12;4.50;97.80
35381;DHT22;21486;51.916;8.378;2023-02-02T01:11:37;4.50;97.60
35381;DHT22;21486;51.916;8.378;2023-02-02T01:14:03;4.50;97.50
35381;DHT22;21486;51.916;8.378;2023-02-02T01:16:29;4.40;97.90
35381;DHT22;21486;51.916;8.378;2023-02-02T01:18:55;4.40;97.90
35381;DHT22;21486;51.916;8.378;2023-02-02T01:21:20;4.30;97.90
35381;DHT22;21486;51.916;8.378;2023-02-02T01:23:47;4.30;98.20
35381;DHT22;21486;51.916;8.378;2023-02-02T01:26:13;4.30;98.30
35381;DHT22;21486;51.916;8.378;2023-02-02T01:28:39;4.30;98.10
35381;DHT22;21486;51.916;8.378;2023-02-02T01:33:02;4.30;97.80
35381;DHT22;21486;51.916;8.378;2023-02-02T01:35:27;4.30;98.00
35381;DHT22;21486;51.916;8.378;2023-02-02T01:37:53;4.30;98.10
35381;DHT22;21486;51.916;8.378;2023-02-02T01:40:18;4.30;98.20
35381;DHT22;21486;51.916;8.378;2023-02-02T01:42:44;4.20;98.20
35381;DHT22;21486;51.916;8.378;2023-02-02T01:45:45;4.20;98.20
35381;DHT22;21486;51.916;8.378;2023-02-02T01:48:04;4.10;98.40
35381;DHT22;21486;51.916;8.378;2023-02-02T01:50:32;4.10;98.30
35381;DHT22;21486;51.916;8.378;2023-02-02T01:52:59;4.20;98.20
35381;DHT22;21486;51.916;8.378;2023-02-02T01:55:27;4.20;98.00
35381;DHT22;21486;51.916;8.378;2023-02-02T01:57:58;4.20;98.00
35381;DHT22;21486;51.916;8.378;2023-02-02T02:00:24;4.10;98.00
35381;DHT22;21486;51.916;8.378;2023-02-02T02:03:04;4.10;98.00
35381;DHT22;21486;51.916;8.378;2023-02-02T02:05:46;4.10;97.90
35381;DHT22;21486;51.916;8.378;2023-02-02T02:08:48;4.10;98.30
35381;DHT22;21486;51.916;8.378;2023-02-02T02:11:06;4.00;98.30
35381;DHT22;21486;51.916;8.378;2023-02-02T02:13:35;4.10;98.20
35381;DHT22;21486;51.916;8.378;2023-02-02T02:16:25;4.10;98.10
35381;DHT22;21486;51.916;8.378;2023-02-02T02:21:42;4.00;98.10
35381;DHT22;21486;51.916;8.378;2023-02-02T02:31:13;4.20;98.20
35381;DHT22;21486;51.916;8.378;2023-02-02T02:33:58;4.30;97.70
35381;DHT22;21486;51.916;8.378;2023-02-02T02:36:34;4.30;97.70
35381;DHT22;21486;51.916;8.378;2023-02-02T02:39:26;4.30;97.60
35381;DHT22;21486;51.916;8.378;2023-02-02T02:41:56;4.40;97.40
35381;DHT22;21486;51.916;8.378;2023-02-02T02:44:23;4.50;97.40
35381;DHT22;21486;51.916;8.378;2023-02-02T02:46:52;4.40;97.50
35381;DHT22;21486;51.916;8.378;2023-02-02T02:49:17;4.40;97.50
35381;DHT22;21486;51.916;8.378;2023-02-02T02:51:47;4.50;97.30
35381;DHT22;21486;51.916;8.378;2023-02-02T02:54:21;4.50;97.60
35381;DHT22;21486;51.916;8.378;2023-02-02T03:02:44;4.50;97.80
35381;DHT22;21486;51.916;8.378;2023-02-02T03:10:28;4.60;97.90
35381;DHT22;21486;51.916;8.378;2023-02-02T03:12:55;4.70;97.90
35381;DHT22;21486;51.916;8.378;2023-02-02T03:15:22;4.70;97.80
35381;DHT22;21486;51.916;8.378;2023-02-02T03:17:49;4.80;97.80
35381;DHT22;21486;51.916;8.378;2023-02-02T03:20:16;4.80;97.80
35381;DHT22;21486;51.916;8.378;2023-02-02T03:22:41;4.70;97.70
35381;DHT22;21486;51.916;8.378;2023-02-02T03:25:07;4.70;98.10
35381;DHT22;21486;51.916;8.378;2023-02-02T03:27:36;4.60;98.20
35381;DHT22;21486;51.916;8.378;2023-02-02T03:30:04;4.60;98.10
35381;DHT22;21486;51.916;8.378;2023-02-02T03:32:30;4.70;98.00
35381;DHT22;21486;51.916;8.378;2023-02-02T03:34:55;4.70;98.00
35381;DHT22;21486;51.916;8.378;2023-02-02T03:37:21;4.70;98.30
35381;DHT22;21486;51.916;8.378;2023-02-02T03:39:46;4.70;98.40
35381;DHT22;21486;51.916;8.378;2023-02-02T03:42:12;4.70;98.10
35381;DHT22;21486;51.916;8.378;2023-02-02T03:44:37;4.60;98.80
35381;DHT22;21486;51.916;8.378;2023-02-02T03:47:03;4.70;98.50
35381;DHT22;21486;51.916;8.378;2023-02-02T03:49:28;4.70;98.50
35381;DHT22;21486;51.916;8.378;2023-02-02T03:51:54;4.80;98.80
35381;DHT22;21486;51.916;8.378;2023-02-02T03:54:19;4.80;98.70
35381;DHT22;21486;51.916;8.378;2023-02-02T03:56:45;4.90;98.30
35381;DHT22;21486;51.916;8.378;2023-02-02T03:59:10;4.90;98.60
35381;DHT22;21486;51.916;8.378;2023-02-02T04:01:36;4.90;98.80
35381;DHT22;21486;51.916;8.378;2023-02-02T04:04:01;4.80;99.10
35381;DHT22;21486;51.916;8.378;2023-02-02T04:06:28;4.90;99.00
35381;DHT22;21486;51.916;8.378;2023-02-02T04:08:57;4.90;99.30
35381;DHT22;21486;51.916;8.378;2023-02-02T04:11:23;5.20;99.10
35381;DHT22;21486;51.916;8.378;2023-02-02T04:13:48;5.10;98.70
35381;DHT22;21486;51.916;8.378;2023-02-02T04:16:14;5.20;98.80
35381;DHT22;21486;51.916;8.378;2023-02-02T04:18:39;5.10;98.80
35381;DHT22;21486;51.916;8.378;2023-02-02T04:21:06;5.10;98.90
35381;DHT22;21486;51.916;8.378;2023-02-02T04:23:32;5.00;99.20
35381;DHT22;21486;51.916;8.378;2023-02-02T04:25:58;5.10;99.60
35381;DHT22;21486;51.916;8.378;2023-02-02T04:28:25;5.20;99.30
35381;DHT22;21486;51.916;8.378;2023-02-02T04:30:52;5.20;99.40
35381;DHT22;21486;51.916;8.378;2023-02-02T04:33:18;5.10;99.60
35381;DHT22;21486;51.916;8.378;2023-02-02T04:35:43;5.00;99.90
35381;DHT22;21486;51.916;8.378;2023-02-02T04:38:09;5.10;99.90
35381;DHT22;21486;51.916;8.378;2023-02-02T04:40:39;5.10;99.90
35381;DHT22;21486;51.916;8.378;2023-02-02T04:43:04;5.10;99.90
35381;DHT22;21486;51.916;8.378;2023-02-02T04:45:30;5.20;99.90
35381;DHT22;21486;51.916;8.378;2023-02-02T04:47:55;5.20;99.90
35381;DHT22;21486;51.916;8.378;2023-02-02T04:50:21;5.20;99.90
35381;DHT22;21486;51.916;8.378;2023-02-02T04:52:47;5.20;99.90
35381;DHT22;21486;51.916;8.378;2023-02-02T04:55:12;5.10;99.90
35381;DHT22;21486;51.916;8.378;2023-02-02T04:57:38;5.10;99.90
35381;DHT22;21486;51.916;8.378;2023-02-02T05:00:04;5.10;99.90
35381;DHT22;21486;51.916;8.378;2023-02-02T05:02:30;5.10;99.90
35381;DHT22;21486;51.916;8.378;2023-02-02T05:04:56;5.20;99.90
35381;DHT22;21486;51.916;8.378;2023-02-02T05:07:21;5.30;99.90
35381;DHT22;21486;51.916;8.378;2023-02-02T05:09:47;5.20;99.90
35381;DHT22;21486;51.916;8.378;2023-02-02T05:12:12;5.10;99.90
35381;DHT22;21486;51.916;8.378;2023-02-02T05:14:38;5.00;99.90
35381;DHT22;21486;51.916;8.378;2023-02-02T05:17:03;5.10;99.90
35381;DHT22;21486;51.916;8.378;2023-02-02T05:19:29;5.00;99.90
35381;DHT22;21486;51.916;8.378;2023-02-02T05:21:54;5.20;99.90
35381;DHT22;21486;51.916;8.378;2023-02-02T05:24:20;5.20;99.90
35381;DHT22;21486;51.916;8.378;2023-02-02T05:26:46;5.20;99.90
35381;DHT22;21486;51.916;8.378;2023-02-02T05:29:11;5.20;99.90
35381;DHT22;21486;51.916;8.378;2023-02-02T05:31:37;5.20;99.90
35381;DHT22;21486;51.916;8.378;2023-02-02T05:34:02;5.10;99.90
35381;DHT22;21486;51.916;8.378;2023-02-02T05:36:29;5.10;99.90
35381;DHT22;21486;51.916;8.378;2023-02-02T05:38:54;5.10;99.90
35381;DHT22;21486;51.916;8.378;2023-02-02T05:41:20;5.10;99.90
35381;DHT22;21486;51.916;8.378;2023-02-02T05:43:45;5.20;99.90
35381;DHT22;21486;51.916;8.378;2023-02-02T05:46:11;5.20;99.90
35381;DHT22;21486;51.916;8.378;2023-02-02T05:48:36;5.20;99.90
35381;DHT22;21486;51.916;8.378;2023-02-02T05:51:05;5.20;99.90
35381;DHT22;21486;51.916;8.378;2023-02-02T05:53:32;5.20;99.90
35381;DHT22;21486;51.916;8.378;2023-02-02T05:55:58;5.20;99.90
35381;DHT22;21486;51.916;8.378;2023-02-02T05:58:24;5.10;99.90
35381;DHT22;21486;51.916;8.378;2023-02-02T06:00:50;5.20;99.90
35381;DHT22;21486;51.916;8.378;2023-02-02T06:03:15;5.10;99.90
35381;DHT22;21486;51.916;8.378;2023-02-02T06:05:41;5.20;99.90
35381;DHT22;21486;51.916;8.378;2023-02-02T06:08:07;5.20;99.90
35381;DHT22;21486;51.916;8.378;2023-02-02T06:10:32;5.20;99.90
35381;DHT22;21486;51.916;8.378;2023-02-02T06:12:58;5.30;99.90
35381;DHT22;21486;51.916;8.378;2023-02-02T06:15:23;5.30;99.90
35381;DHT22;21486;51.916;8.378;2023-02-02T06:17:51;5.50;99.90
35381;DHT22;21486;51.916;8.378;2023-02-02T06:20:17;5.40;99.90
35381;DHT22;21486;51.916;8.378;2023-02-02T06:22:43;5.50;99.90
35381;DHT22;21486;51.916;8.378;2023-02-02T06:25:08;5.40;99.90
35381;DHT22;21486;51.916;8.378;2023-02-02T06:27:34;5.30;99.90
35381;DHT22;21486;51.916;8.378;2023-02-02T06:29:59;5.20;99.90
35381;DHT22;21486;51.916;8.378;2023-02-02T06:32:27;5.20;99.90
35381;DHT22;21486;51.916;8.378;2023-02-02T06:34:53;5.20;99.90
35381;DHT22;21486;51.916;8.378;2023-02-02T06:37:19;5.30;99.90
35381;DHT22;21486;51.916;8.378;2023-02-02T06:39:44;5.20;99.90
35381;DHT22;21486;51.916;8.378;2023-02-02T06:42:10;5.20;99.90
35381;DHT22;21486;51.916;8.378;2023-02-02T06:44:35;5.30;99.90
35381;DHT22;21486;51.916;8.378;2023-02-02T06:47:01;5.30;99.90
35381;DHT22;21486;51.916;8.378;2023-02-02T06:49:26;5.60;99.90
35381;DHT22;21486;51.916;8.378;2023-02-02T06:51:52;5.60;99.90
35381;DHT22;21486;51.916;8.378;2023-02-02T06:54:17;5.60;98.70
35381;DHT22;21486;51.916;8.378;2023-02-02T06:56:43;5.60;98.40
35381;DHT22;21486;51.916;8.378;2023-02-02T06:59:09;5.30;98.70
35381;DHT22;21486;51.916;8.378;2023-02-02T07:01:34;5.30;99.00
35381;DHT22;21486;51.916;8.378;2023-02-02T07:04:00;5.30;98.50
35381;DHT22;21486;51.916;8.378;2023-02-02T07:06:27;5.30;98.80
35381;DHT22;21486;51.916;8.378;2023-02-02T07:08:53;5.20;98.60
35381;DHT22;21486;51.916;8.378;2023-02-02T07:11:19;5.20;98.30
35381;DHT22;21486;51.916;8.378;2023-02-02T07:13:45;5.10;98.60
35381;DHT22;21486;51.916;8.378;2023-02-02T07:16:11;5.10;98.80
35381;DHT22;21486;51.916;8.378;2023-02-02T07:18:37;5.10;98.70
35381;DHT22;21486;51.916;8.378;2023-02-02T07:21:04;5.00;98.90
35381;DHT22;21486;51.916;8.378;2023-02-02T07:23:31;4.80;99.50
35381;DHT22;21486;51.916;8.378;2023-02-02T07:26:05;4.70;99.90
35381;DHT22;21486;51.916;8.378;2023-02-02T07:28:30;4.70;99.90
35381;DHT22;21486;51.916;8.378;2023-02-02T07:30:56;4.60;99.90
35381;DHT22;21486;51.916;8.378;2023-02-02T07:33:22;4.90;99.90
35381;DHT22;21486;51.916;8.378;2023-02-02T07:35:47;5.00;99.40
35381;DHT22;21486;51.916;8.378;2023-02-02T07:38:13;5.00;99.10
35381;DHT22;21486;51.916;8.378;2023-02-02T07:40:38;5.10;98.90
35381;DHT22;21486;51.916;8.378;2023-02-02T07:43:04;5.00;99.20
35381;DHT22;21486;51.916;8.378;2023-02-02T07:45:30;4.70;99.40
35381;DHT22;21486;51.916;8.378;2023-02-02T07:47:59;4.60;99.90
35381;DHT22;21486;51.916;8.378;2023-02-02T07:50:25;4.80;99.60
35381;DHT22;21486;51.916;8.378;2023-02-02T07:52:51;4.70;99.70
35381;DHT22;21486;51.916;8.378;2023-02-02T07:55:17;4.60;99.80
35381;DHT22;21486;51.916;8.378;2023-02-02T07:57:43;4.60;99.90
35381;DHT22;21486;51.916;8.378;2023-02-02T08:00:09;4.70;99.90
35381;DHT22;21486;51.916;8.378;2023-02-02T08:02:35;4.60;99.80
35381;DHT22;21486;51.916;8.378;2023-02-02T08:05:01;4.70;99.90
35381;DHT22;21486;51.916;8.378;2023-02-02T08:07:26;4.80;99.80
35381;DHT22;21486;51.916;8.378;2023-02-02T08:09:52;4.90;99.40
35381;DHT22;21486;51.916;8.378;2023-02-02T08:12:18;4.70;99.40
35381;DHT22;21486;51.916;8.378;2023-02-02T08:14:45;4.80;99.70
35381;DHT22;21486;51.916;8.378;2023-02-02T08:17:11;4.70;99.80
35381;DHT22;21486;51.916;8.378;2023-02-02T08:19:37;4.50;99.90
35381;DHT22;21486;51.916;8.378;2023-02-02T08:22:03;4.50;99.90
35381;DHT22;21486;51.916;8.378;2023-02-02T08:24:28;4.80;99.90
35381;DHT22;21486;51.916;8.378;2023-02-02T08:26:54;4.80;99.90
35381;DHT22;21486;51.916;8.378;2023-02-02T08:29:19;4.70;99.90
35381;DHT22;21486;51.916;8.378;2023-02-02T08:31:45;4.50;99.90
35381;DHT22;21486;51.916;8.378;2023-02-02T08:34:11;4.60;99.90
35381;DHT22;21486;51.916;8.378;2023-02-02T08:36:38;4.70;99.90
35381;DHT22;21486;51.916;8.378;2023-02-02T08:39:09;4.70;99.90
35381;DHT22;21486;51.916;8.378;2023-02-02T08:41:35;4.60;99.90
35381;DHT22;21486;51.916;8.378;2023-02-02T08:44:05;4.80;99.90
35381;DHT22;21486;51.916;8.378;2023-02-02T08:46:31;4.90;99.90
35381;DHT22;21486;51.916;8.378;2023-02-02T08:48:57;5.10;99.30
35381;DHT22;21486;51.916;8.378;2023-02-02T08:51:23;5.00;99.00
35381;DHT22;21486;51.916;8.378;2023-02-02T08:53:48;5.00;99.40
35381;DHT22;21486;51.916;8.378;2023-02-02T08:56:19;5.00;99.10
35381;DHT22;21486;51.916;8.378;2023-02-02T08:58:50;5.10;98.70
35381;DHT22;21486;51.916;8.378;2023-02-02T09:01:21;5.10;98.50
35381;DHT22;21486;51.916;8.378;2023-02-02T09:03:47;5.10;98.40
35381;DHT22;21486;51.916;8.378;2023-02-02T09:06:17;5.00;99.10
35381;DHT22;21486;51.916;8.378;2023-02-02T09:08:45;4.90;99.20
35381;DHT22;21486;51.916;8.378;2023-02-02T09:11:17;4.90;99.60
35381;DHT22;21486;51.916;8.378;2023-02-02T09:13:44;5.00;99.50
35381;DHT22;21486;51.916;8.378;2023-02-02T09:16:11;4.90;99.90
35381;DHT22;21486;51.916;8.378;2023-02-02T09:18:38;4.90;99.70
35381;DHT22;21486;51.916;8.378;2023-02-02T09:21:06;5.00;99.60
35381;DHT22;21486;51.916;8.378;2023-02-02T09:23:33;5.00;99.60
35381;DHT22;21486;51.916;8.378;2023-02-02T09:26:17;4.90;99.90
35381;DHT22;21486;51.916;8.378;2023-02-02T09:28:46;4.90;99.90
35381;DHT22;21486;51.916;8.378;2023-02-02T09:31:12;4.90;99.90
35381;DHT22;21486;51.916;8.378;2023-02-02T09:33:38;4.90;99.90
35381;DHT22;21486;51.916;8.378;2023-02-02T09:36:17;4.80;99.90
35381;DHT22;21486;51.916;8.378;2023-02-02T09:38:44;4.90;99.90
35381;DHT22;21486;51.916;8.378;2023-02-02T09:47:01;4.90;99.90
35381;DHT22;21486;51.916;8.378;2023-02-02T09:49:53;4.90;99.90
35381;DHT22;21486;51.916;8.378;2023-02-02T09:52:28;4.90;99.90
35381;DHT22;21486;51.916;8.378;2023-02-02T09:54:59;5.00;99.90
35381;DHT22;21486;51.916;8.378;2023-02-02T09:57:38;5.00;99.90
35381;DHT22;21486;51.916;8.378;2023-02-02T10:00:06;5.10;99.90
35381;DHT22;21486;51.916;8.378;2023-02-02T10:02:43;5.00;99.90
35381;DHT22;21486;51.916;8.378;2023-02-02T10:05:17;5.20;99.50
35381;DHT22;21486;51.916;8.378;2023-02-02T10:07:47;5.10;99.40
35381;DHT22;21486;51.916;8.378;2023-02-02T10:10:19;5.00;99.90
35381;DHT22;21486;51.916;8.378;2023-02-02T10:15:36;5.10;99.90
35381;DHT22;21486;51.916;8.378;2023-02-02T10:18:35;5.00;99.90
35381;DHT22;21486;51.916;8.378;2023-02-02T10:21:09;5.20;99.90
35381;DHT22;21486;51.916;8.378;2023-02-02T10:23:39;5.40;99.50
35381;DHT22;21486;51.916;8.378;2023-02-02T10:26:27;5.40;99.40
35381;DHT22;21486;51.916;8.378;2023-02-02T10:32:21;5.30;99.50
35381;DHT22;21486;51.916;8.378;2023-02-02T10:35:11;5.10;99.90
35381;DHT22;21486;51.916;8.378;2023-02-02T10:37:55;5.00;99.90
35381;DHT22;21486;51.916;8.378;2023-02-02T10:40:32;5.00;99.90
35381;DHT22;21486;51.916;8.378;2023-02-02T10:45:52;5.30;99.20
35381;DHT22;21486;51.916;8.378;2023-02-02T10:48:22;5.40;99.80
35381;DHT22;21486;51.916;8.378;2023-02-02T10:50:55;5.50;99.20
35381;DHT22;21486;51.916;8.378;2023-02-02T10:53:23;5.50;99.20
35381;DHT22;21486;51.916;8.378;2023-02-02T10:55:57;5.40;99.20
35381;DHT22;21486;51.916;8.378;2023-02-02T10:59:47;5.20;99.20
35381;DHT22;21486;51.916;8.378;2023-02-02T11:01:38;5.10;99.60
35381;DHT22;21486;51.916;8.378;2023-02-02T11:04:04;5.00;99.90
35381;DHT22;21486;51.916;8.378;2023-02-02T11:06:49;5.10;99.90
35381;DHT22;21486;51.916;8.378;2023-02-02T11:09:18;5.10;99.90
35381;DHT22;21486;51.916;8.378;2023-02-02T11:11:46;4.90;99.90
35381;DHT22;21486;51.916;8.378;2023-02-02T11:14:16;4.90;99.90
35381;DHT22;21486;51.916;8.378;2023-02-02T11:16:44;4.90;99.90
35381;DHT22;21486;51.916;8.378;2023-02-02T11:21:44;4.90;99.90
35381;DHT22;21486;51.916;8.378;2023-02-02T11:29:44;5.10;99.90
35381;DHT22;21486;51.916;8.378;2023-02-02T11:32:29;5.20;99.90
35381;DHT22;21486;51.916;8.378;2023-02-02T11:37:27;5.10;99.90
35381;DHT22;21486;51.916;8.378;2023-02-02T11:39:53;5.10;99.90
35381;DHT22;21486;51.916;8.378;2023-02-02T11:42:19;5.10;99.90
35381;DHT22;21486;51.916;8.378;2023-02-02T11:44:50;5.10;99.90
35381;DHT22;21486;51.916;8.378;2023-02-02T11:47:28;5.00;99.90
35381;DHT22;21486;51.916;8.378;2023-02-02T11:49:56;5.20;99.90
35381;DHT22;21486;51.916;8.378;2023-02-02T11:52:25;5.10;99.90
35381;DHT22;21486;51.916;8.378;2023-02-02T11:54:54;5.10;99.90
35381;DHT22;21486;51.916;8.378;2023-02-02T11:57:23;5.10;99.90
35381;DHT22;21486;51.916;8.378;2023-02-02T11:59:51;5.20;99.90
35381;DHT22;21486;51.916;8.378;2023-02-02T12:02:30;5.10;99.90
35381;DHT22;21486;51.916;8.378;2023-02-02T12:07:50;5.00;99.90
35381;DHT22;21486;51.916;8.378;2023-02-02T12:10:24;5.20;99.90
35381;DHT22;21486;51.916;8.378;2023-02-02T12:13:07;5.40;99.90
35381;DHT22;21486;51.916;8.378;2023-02-02T12:15:48;5.30;99.90
35381;DHT22;21486;51.916;8.378;2023-02-02T12:18:44;5.20;99.90
35381;DHT22;21486;51.916;8.378;2023-02-02T12:21:48;5.20;99.90
35381;DHT22;21486;51.916;8.378;2023-02-02T12:27:17;5.30;99.90
35381;DHT22;21486;51.916;8.378;2023-02-02T12:35:30;5.20;99.90
35381;DHT22;21486;51.916;8.378;2023-02-02T12:38:15;5.10;99.90
35381;DHT22;21486;51.916;8.378;2023-02-02T12:43:40;5.10;99.90
35381;DHT22;21486;51.916;8.378;2023-02-02T12:51:40;5.00;99.90
35381;DHT22;21486;51.916;8.378;2023-02-02T13:03:08;5.00;99.90
35381;DHT22;21486;51.916;8.378;2023-02-02T13:08:33;5.10;99.90
35381;DHT22;21486;51.916;8.378;2023-02-02T13:11:09;4.90;99.90
35381;DHT22;21486;51.916;8.378;2023-02-02T13:14:11;5.00;99.90
35381;DHT22;21486;51.916;8.378;2023-02-02T13:16:42;5.00;99.90
35381;DHT22;21486;51.916;8.378;2023-02-02T13:21:50;5.00;99.90
35381;DHT22;21486;51.916;8.378;2023-02-02T13:24:25;5.00;99.90
35381;DHT22;21486;51.916;8.378;2023-02-02T13:26:51;5.00;99.90
35381;DHT22;21486;51.916;8.378;2023-02-02T13:29:44;5.00;99.90
35381;DHT22;21486;51.916;8.378;2023-02-02T13:32:30;5.00;99.90
35381;DHT22;21486;51.916;8.378;2023-02-02T13:38:00;5.00;99.90
35381;DHT22;21486;51.916;8.378;2023-02-02T13:40:39;5.00;99.90
35381;DHT22;21486;51.916;8.378;2023-02-02T13:54:13;5.00;99.90
35381;DHT22;21486;51.916;8.378;2023-02-02T14:00:31;5.00;99.90
35381;DHT22;21486;51.916;8.378;2023-02-02T14:02:59;5.10;99.90
35381;DHT22;21486;51.916;8.378;2023-02-02T14:05:33;5.10;99.90
35381;DHT22;21486;51.916;8.378;2023-02-02T14:08:20;5.00;99.90
35381;DHT22;21486;51.916;8.378;2023-02-02T14:13:39;5.00;99.90
35381;DHT22;21486;51.916;8.378;2023-02-02T14:18:58;5.10;99.90
35381;DHT22;21486;51.916;8.378;2023-02-02T14:34:37;5.00;99.90
35381;DHT22;21486;51.916;8.378;2023-02-02T14:45:46;4.90;99.90
35381;DHT22;21486;51.916;8.378;2023-02-02T14:48:22;4.90;99.90
35381;DHT22;21486;51.916;8.378;2023-02-02T14:50:54;4.80;99.90
35381;DHT22;21486;51.916;8.378;2023-02-02T14:53:31;4.80;99.90
35381;DHT22;21486;51.916;8.378;2023-02-02T14:56:04;4.80;99.90
35381;DHT22;21486;51.916;8.378;2023-02-02T14:58:31;4.80;99.90
35381;DHT22;21486;51.916;8.378;2023-02-02T15:03:48;4.80;99.90
35381;DHT22;21486;51.916;8.378;2023-02-02T15:06:32;4.90;99.90
35381;DHT22;21486;51.916;8.378;2023-02-02T15:14:24;4.90;99.90
35381;DHT22;21486;51.916;8.378;2023-02-02T15:16:51;4.80;99.90
35381;DHT22;21486;51.916;8.378;2023-02-02T15:19:34;4.70;99.90
35381;DHT22;21486;51.916;8.378;2023-02-02T15:22:32;4.70;99.90
35381;DHT22;21486;51.916;8.378;2023-02-02T15:25:11;4.70;99.90
35381;DHT22;21486;51.916;8.378;2023-02-02T15:27:38;4.70;99.90
35381;DHT22;21486;51.916;8.378;2023-02-02T15:30:07;4.60;99.90
35381;DHT22;21486;51.916;8.378;2023-02-02T15:32:34;4.60;99.90
35381;DHT22;21486;51.916;8.378;2023-02-02T15:35:03;4.60;99.90
35381;DHT22;21486;51.916;8.378;2023-02-02T15:37:31;4.60;99.90
35381;DHT22;21486;51.916;8.378;2023-02-02T15:40:12;4.60;99.90
35381;DHT22;21486;51.916;8.378;2023-02-02T15:42:43;4.50;99.90
35381;DHT22;21486;51.916;8.378;2023-02-02T15:48:05;4.60;99.90
35381;DHT22;21486;51.916;8.378;2023-02-02T15:50:32;4.60;99.90
35381;DHT22;21486;51.916;8.378;2023-02-02T15:52:58;4.50;99.90
35381;DHT22;21486;51.916;8.378;2023-02-02T15:55:30;4.60;99.90
35381;DHT22;21486;51.916;8.378;2023-02-02T15:57:56;4.50;99.90
35381;DHT22;21486;51.916;8.378;2023-02-02T16:03:03;4.50;99.90
35381;DHT22;21486;51.916;8.378;2023-02-02T16:08:04;4.40;99.90
35381;DHT22;21486;51.916;8.378;2023-02-02T16:10:31;4.40;99.90
35381;DHT22;21486;51.916;8.378;2023-02-02T16:12:57;4.40;99.90
35381;DHT22;21486;51.916;8.378;2023-02-02T16:15:25;4.40;99.90
35381;DHT22;21486;51.916;8.378;2023-02-02T16:18:20;4.40;99.90
35381;DHT22;21486;51.916;8.378;2023-02-02T16:20:46;4.40;99.90
35381;DHT22;21486;51.916;8.378;2023-02-02T16:23:15;4.50;99.90
35381;DHT22;21486;51.916;8.378;2023-02-02T16:25:50;4.40;99.90
35381;DHT22;21486;51.916;8.378;2023-02-02T16:28:19;4.30;99.90
35381;DHT22;21486;51.916;8.378;2023-02-02T16:30:46;4.40;99.90
35381;DHT22;21486;51.916;8.378;2023-02-02T16:35:55;4.40;99.90
35381;DHT22;21486;51.916;8.378;2023-02-02T16:38:33;4.40;99.90
35381;DHT22;21486;51.916;8.378;2023-02-02T16:41:10;4.40;99.90
35381;DHT22;21486;51.916;8.378;2023-02-02T16:43:37;4.40;99.90
35381;DHT22;21486;51.916;8.378;2023-02-02T16:46:12;4.40;99.90
35381;DHT22;21486;51.916;8.378;2023-02-02T16:48:41;4.40;99.90
35381;DHT22;21486;51.916;8.378;2023-02-02T16:53:45;4.50;99.90
35381;DHT22;21486;51.916;8.378;2023-02-02T16:56:27;4.40;99.90
35381;DHT22;21486;51.916;8.378;2023-02-02T16:58:53;4.40;99.90
35381;DHT22;21486;51.916;8.378;2023-02-02T17:01:32;4.40;99.90
35381;DHT22;21486;51.916;8.378;2023-02-02T17:03:58;4.40;99.90
35381;DHT22;21486;51.916;8.378;2023-02-02T17:06:29;4.50;99.90
35381;DHT22;21486;51.916;8.378;2023-02-02T17:08:56;4.50;99.90
35381;DHT22;21486;51.916;8.378;2023-02-02T17:11:25;4.50;99.90
35381;DHT22;21486;51.916;8.378;2023-02-02T17:13:52;4.50;99.90
35381;DHT22;21486;51.916;8.378;2023-02-02T17:16:21;4.50;99.90
35381;DHT22;21486;51.916;8.378;2023-02-02T17:18:47;4.50;99.90
35381;DHT22;21486;51.916;8.378;2023-02-02T17:21:21;4.50;99.90
35381;DHT22;21486;51.916;8.378;2023-02-02T17:23:49;4.50;99.90
35381;DHT22;21486;51.916;8.378;2023-02-02T17:26:16;4.50;99.90
35381;DHT22;21486;51.916;8.378;2023-02-02T17:28:42;4.50;99.90
35381;DHT22;21486;51.916;8.378;2023-02-02T17:31:12;4.50;99.90
35381;DHT22;21486;51.916;8.378;2023-02-02T17:33:40;4.50;99.90
35381;DHT22;21486;51.916;8.378;2023-02-02T17:36:06;4.50;99.90
35381;DHT22;21486;51.916;8.378;2023-02-02T17:38:32;4.60;99.90
35381;DHT22;21486;51.916;8.378;2023-02-02T17:40:59;4.60;99.90
35381;DHT22;21486;51.916;8.378;2023-02-02T17:43:25;4.70;99.90
35381;DHT22;21486;51.916;8.378;2023-02-02T17:45:51;4.60;99.90
35381;DHT22;21486;51.916;8.378;2023-02-02T17:48:18;4.60;99.90
35381;DHT22;21486;51.916;8.378;2023-02-02T17:50:45;4.70;99.90
35381;DHT22;21486;51.916;8.378;2023-02-02T17:53:13;4.70;99.90
35381;DHT22;21486;51.916;8.378;2023-02-02T17:55:40;4.70;99.90
35381;DHT22;21486;51.916;8.378;2023-02-02T17:58:07;4.70;99.90
35381;DHT22;21486;51.916;8.378;2023-02-02T18:00:33;4.80;99.90
35381;DHT22;21486;51.916;8.378;2023-02-02T18:03:12;4.80;99.90
35381;DHT22;21486;51.916;8.378;2023-02-02T18:05:38;4.80;99.90
35381;DHT22;21486;51.916;8.378;2023-02-02T18:08:04;4.90;99.90
35381;DHT22;21486;51.916;8.378;2023-02-02T18:10:30;4.90;99.90
35381;DHT22;21486;51.916;8.378;2023-02-02T18:12:56;4.90;99.90
35381;DHT22;21486;51.916;8.378;2023-02-02T18:15:22;5.00;99.90
35381;DHT22;21486;51.916;8.378;2023-02-02T18:17:47;5.00;99.90
35381;DHT22;21486;51.916;8.378;2023-02-02T18:20:14;5.00;99.90
35381;DHT22;21486;51.916;8.378;2023-02-02T18:22:40;5.10;99.90
35381;DHT22;21486;51.916;8.378;2023-02-02T18:25:09;5.10;99.90
35381;DHT22;21486;51.916;8.378;2023-02-02T18:27:35;5.20;99.90